Terminal Aerodrome Forecast
Issued by NWS

Home | Current Version | Previous Version | Text Only | Print | Product List | Glossary Off
Versions: 1 2 3 4 5 6 7 8 9 10 11 12 13 14 15 16

890
FTUS43 KBIS 192321
TAFJMS
TAF
KJMS 192321Z 2000/2024 19012KT P6SM FEW050 FEW130
     FM200300 26004KT P6SM SKC
     FM201500 06004KT P6SM SKC
     FM201800 13008KT P6SM FEW080 FEW250
     FM202100 16010KT P6SM FEW100 FEW250=

USA.gov is the U.S. government's official web portal to all federal, state and local government web resources and services.